sensor_id;sensor_type;location;lat;lon;timestamp;P1;durP1;ratioP1;P2;durP2;ratioP2
48481;SDS011;34284;48.278;16.378;2023-08-08T00:02:00;299.93;;;134.57;;
48481;SDS011;34284;48.278;16.378;2023-08-08T00:04:26;300.17;;;133.13;;
48481;SDS011;34284;48.278;16.378;2023-08-08T00:06:52;304.33;;;135.23;;
48481;SDS011;34284;48.278;16.378;2023-08-08T00:09:18;308.23;;;137.97;;
48481;SDS011;34284;48.278;16.378;2023-08-08T00:11:44;304.80;;;133.27;;
48481;SDS011;34284;48.278;16.378;2023-08-08T00:14:11;303.30;;;134.43;;
48481;SDS011;34284;48.278;16.378;2023-08-08T00:16:36;303.47;;;137.37;;
48481;SDS011;34284;48.278;16.378;2023-08-08T00:19:02;299.77;;;132.10;;
48481;SDS011;34284;48.278;16.378;2023-08-08T00:21:28;299.33;;;132.13;;
48481;SDS011;34284;48.278;16.378;2023-08-08T00:23:55;302.17;;;136.33;;
48481;SDS011;34284;48.278;16.378;2023-08-08T00:26:21;305.27;;;133.93;;
48481;SDS011;34284;48.278;16.378;2023-08-08T00:28:46;306.30;;;134.43;;
48481;SDS011;34284;48.278;16.378;2023-08-08T00:31:13;304.60;;;135.13;;
48481;SDS011;34284;48.278;16.378;2023-08-08T00:33:42;301.77;;;131.00;;
48481;SDS011;34284;48.278;16.378;2023-08-08T00:36:08;301.70;;;134.23;;
48481;SDS011;34284;48.278;16.378;2023-08-08T00:38:34;301.30;;;132.63;;
48481;SDS011;34284;48.278;16.378;2023-08-08T00:41:00;302.03;;;132.60;;
48481;SDS011;34284;48.278;16.378;2023-08-08T00:43:26;297.10;;;131.50;;
48481;SDS011;34284;48.278;16.378;2023-08-08T00:45:52;307.57;;;134.63;;
48481;SDS011;34284;48.278;16.378;2023-08-08T00:48:18;308.50;;;133.30;;
48481;SDS011;34284;48.278;16.378;2023-08-08T00:50:44;309.00;;;135.93;;
48481;SDS011;34284;48.278;16.378;2023-08-08T00:53:11;306.63;;;135.80;;
48481;SDS011;34284;48.278;16.378;2023-08-08T00:55:37;302.13;;;132.07;;
48481;SDS011;34284;48.278;16.378;2023-08-08T00:58:03;303.77;;;134.83;;
48481;SDS011;34284;48.278;16.378;2023-08-08T01:00:29;301.23;;;132.60;;
48481;SDS011;34284;48.278;16.378;2023-08-08T01:02:55;302.87;;;132.63;;
48481;SDS011;34284;48.278;16.378;2023-08-08T01:05:21;302.33;;;134.63;;
48481;SDS011;34284;48.278;16.378;2023-08-08T01:07:52;305.00;;;134.60;;
48481;SDS011;34284;48.278;16.378;2023-08-08T01:10:21;303.37;;;132.87;;
48481;SDS011;34284;48.278;16.378;2023-08-08T01:12:50;310.40;;;137.23;;
48481;SDS011;34284;48.278;16.378;2023-08-08T01:15:17;303.97;;;136.27;;
48481;SDS011;34284;48.278;16.378;2023-08-08T01:17:44;302.57;;;130.87;;
48481;SDS011;34284;48.278;16.378;2023-08-08T01:20:11;298.60;;;132.07;;
48481;SDS011;34284;48.278;16.378;2023-08-08T01:22:55;299.37;;;132.00;;
48481;SDS011;34284;48.278;16.378;2023-08-08T01:25:22;294.57;;;129.23;;
48481;SDS011;34284;48.278;16.378;2023-08-08T01:27:48;305.43;;;133.70;;
48481;SDS011;34284;48.278;16.378;2023-08-08T01:30:14;301.63;;;132.10;;
48481;SDS011;34284;48.278;16.378;2023-08-08T01:32:40;302.80;;;135.87;;
48481;SDS011;34284;48.278;16.378;2023-08-08T01:35:07;297.50;;;133.37;;
48481;SDS011;34284;48.278;16.378;2023-08-08T01:37:35;303.43;;;135.10;;
48481;SDS011;34284;48.278;16.378;2023-08-08T01:40:02;314.33;;;135.37;;
48481;SDS011;34284;48.278;16.378;2023-08-08T01:42:28;304.97;;;135.53;;
48481;SDS011;34284;48.278;16.378;2023-08-08T01:44:55;309.40;;;136.53;;
48481;SDS011;34284;48.278;16.378;2023-08-08T01:47:21;308.07;;;138.00;;
48481;SDS011;34284;48.278;16.378;2023-08-08T01:49:47;306.47;;;137.80;;
48481;SDS011;34284;48.278;16.378;2023-08-08T01:52:13;306.77;;;134.90;;
48481;SDS011;34284;48.278;16.378;2023-08-08T01:54:39;300.43;;;131.83;;
48481;SDS011;34284;48.278;16.378;2023-08-08T01:57:07;305.03;;;135.33;;
48481;SDS011;34284;48.278;16.378;2023-08-08T01:59:33;305.57;;;136.90;;
48481;SDS011;34284;48.278;16.378;2023-08-08T02:01:59;301.60;;;130.97;;
48481;SDS011;34284;48.278;16.378;2023-08-08T02:04:25;306.80;;;132.00;;
48481;SDS011;34284;48.278;16.378;2023-08-08T02:06:51;307.67;;;136.53;;
48481;SDS011;34284;48.278;16.378;2023-08-08T02:09:17;305.63;;;132.90;;
48481;SDS011;34284;48.278;16.378;2023-08-08T02:11:43;306.70;;;133.43;;
48481;SDS011;34284;48.278;16.378;2023-08-08T02:14:09;298.70;;;134.70;;
48481;SDS011;34284;48.278;16.378;2023-08-08T02:16:35;305.57;;;131.93;;
48481;SDS011;34284;48.278;16.378;2023-08-08T02:19:01;302.80;;;136.57;;
48481;SDS011;34284;48.278;16.378;2023-08-08T02:21:27;309.53;;;133.80;;
48481;SDS011;34284;48.278;16.378;2023-08-08T02:23:53;316.03;;;135.13;;
48481;SDS011;34284;48.278;16.378;2023-08-08T02:26:19;325.43;;;140.37;;
48481;SDS011;34284;48.278;16.378;2023-08-08T02:28:45;307.93;;;134.50;;
48481;SDS011;34284;48.278;16.378;2023-08-08T02:31:11;302.90;;;137.23;;
48481;SDS011;34284;48.278;16.378;2023-08-08T02:33:37;304.13;;;133.73;;
48481;SDS011;34284;48.278;16.378;2023-08-08T02:36:03;301.10;;;134.67;;
48481;SDS011;34284;48.278;16.378;2023-08-08T02:38:29;303.23;;;132.97;;
48481;SDS011;34284;48.278;16.378;2023-08-08T02:40:55;302.80;;;132.63;;
48481;SDS011;34284;48.278;16.378;2023-08-08T02:43:21;303.97;;;135.37;;
48481;SDS011;34284;48.278;16.378;2023-08-08T02:45:47;307.60;;;138.77;;
48481;SDS011;34284;48.278;16.378;2023-08-08T02:48:13;305.10;;;132.53;;
48481;SDS011;34284;48.278;16.378;2023-08-08T02:50:39;302.87;;;133.73;;
48481;SDS011;34284;48.278;16.378;2023-08-08T02:53:05;296.93;;;129.00;;
48481;SDS011;34284;48.278;16.378;2023-08-08T02:55:31;301.30;;;137.17;;
48481;SDS011;34284;48.278;16.378;2023-08-08T02:57:57;304.80;;;134.80;;
48481;SDS011;34284;48.278;16.378;2023-08-08T03:00:23;298.73;;;134.00;;
48481;SDS011;34284;48.278;16.378;2023-08-08T03:02:49;310.33;;;139.17;;
48481;SDS011;34284;48.278;16.378;2023-08-08T03:05:15;300.87;;;134.67;;
48481;SDS011;34284;48.278;16.378;2023-08-08T03:07:41;297.13;;;131.90;;
48481;SDS011;34284;48.278;16.378;2023-08-08T03:10:07;318.30;;;134.73;;
48481;SDS011;34284;48.278;16.378;2023-08-08T03:12:33;298.53;;;132.97;;
48481;SDS011;34284;48.278;16.378;2023-08-08T03:14:59;297.57;;;133.23;;
48481;SDS011;34284;48.278;16.378;2023-08-08T03:17:25;299.43;;;133.27;;
48481;SDS011;34284;48.278;16.378;2023-08-08T03:19:51;309.17;;;138.30;;
48481;SDS011;34284;48.278;16.378;2023-08-08T03:22:17;300.63;;;136.53;;
48481;SDS011;34284;48.278;16.378;2023-08-08T03:24:43;298.83;;;133.50;;
48481;SDS011;34284;48.278;16.378;2023-08-08T03:27:09;296.30;;;132.77;;
48481;SDS011;34284;48.278;16.378;2023-08-08T03:29:36;297.37;;;134.47;;
48481;SDS011;34284;48.278;16.378;2023-08-08T03:32:02;299.63;;;134.67;;
48481;SDS011;34284;48.278;16.378;2023-08-08T03:34:29;298.00;;;131.67;;
48481;SDS011;34284;48.278;16.378;2023-08-08T03:36:55;300.30;;;135.00;;
48481;SDS011;34284;48.278;16.378;2023-08-08T03:39:21;300.23;;;133.23;;
48481;SDS011;34284;48.278;16.378;2023-08-08T03:41:47;294.27;;;133.57;;
48481;SDS011;34284;48.278;16.378;2023-08-08T03:44:13;297.70;;;134.30;;
48481;SDS011;34284;48.278;16.378;2023-08-08T03:46:39;294.47;;;134.13;;
48481;SDS011;34284;48.278;16.378;2023-08-08T03:49:05;302.20;;;134.97;;
48481;SDS011;34284;48.278;16.378;2023-08-08T03:51:31;297.77;;;135.97;;
48481;SDS011;34284;48.278;16.378;2023-08-08T03:53:57;301.90;;;132.20;;
48481;SDS011;34284;48.278;16.378;2023-08-08T03:56:23;294.27;;;133.13;;
48481;SDS011;34284;48.278;16.378;2023-08-08T03:58:49;304.10;;;134.70;;
48481;SDS011;34284;48.278;16.378;2023-08-08T04:01:15;295.57;;;133.43;;
48481;SDS011;34284;48.278;16.378;2023-08-08T04:03:41;294.43;;;133.73;;
48481;SDS011;34284;48.278;16.378;2023-08-08T04:06:07;293.57;;;136.37;;
48481;SDS011;34284;48.278;16.378;2023-08-08T04:08:33;294.90;;;134.43;;
48481;SDS011;34284;48.278;16.378;2023-08-08T04:10:59;296.63;;;137.43;;
48481;SDS011;34284;48.278;16.378;2023-08-08T04:13:25;305.20;;;136.53;;
48481;SDS011;34284;48.278;16.378;2023-08-08T04:15:51;299.23;;;133.53;;
48481;SDS011;34284;48.278;16.378;2023-08-08T04:18:18;299.30;;;140.17;;
48481;SDS011;34284;48.278;16.378;2023-08-08T04:20:45;291.07;;;136.13;;
48481;SDS011;34284;48.278;16.378;2023-08-08T04:23:12;291.40;;;140.00;;
48481;SDS011;34284;48.278;16.378;2023-08-08T04:25:38;295.87;;;137.70;;
48481;SDS011;34284;48.278;16.378;2023-08-08T04:28:04;292.30;;;130.97;;
48481;SDS011;34284;48.278;16.378;2023-08-08T04:30:30;303.07;;;139.23;;
48481;SDS011;34284;48.278;16.378;2023-08-08T04:32:56;297.47;;;136.70;;
48481;SDS011;34284;48.278;16.378;2023-08-08T04:35:22;299.47;;;133.90;;
48481;SDS011;34284;48.278;16.378;2023-08-08T04:37:48;296.57;;;134.90;;
48481;SDS011;34284;48.278;16.378;2023-08-08T04:40:14;299.17;;;134.23;;
48481;SDS011;34284;48.278;16.378;2023-08-08T04:42:40;288.63;;;130.73;;
48481;SDS011;34284;48.278;16.378;2023-08-08T04:45:06;291.57;;;133.93;;
48481;SDS011;34284;48.278;16.378;2023-08-08T04:47:32;290.40;;;130.80;;
48481;SDS011;34284;48.278;16.378;2023-08-08T04:49:58;292.43;;;130.00;;
48481;SDS011;34284;48.278;16.378;2023-08-08T04:52:24;293.00;;;131.13;;
48481;SDS011;34284;48.278;16.378;2023-08-08T04:54:50;293.20;;;134.90;;
48481;SDS011;34284;48.278;16.378;2023-08-08T04:57:16;294.73;;;132.37;;
48481;SDS011;34284;48.278;16.378;2023-08-08T04:59:42;288.07;;;133.50;;
48481;SDS011;34284;48.278;16.378;2023-08-08T05:02:09;288.07;;;140.43;;
48481;SDS011;34284;48.278;16.378;2023-08-08T05:04:34;284.47;;;138.47;;
48481;SDS011;34284;48.278;16.378;2023-08-08T05:07:00;290.23;;;138.53;;
48481;SDS011;34284;48.278;16.378;2023-08-08T05:09:27;291.77;;;138.87;;
48481;SDS011;34284;48.278;16.378;2023-08-08T05:11:53;287.83;;;133.93;;
48481;SDS011;34284;48.278;16.378;2023-08-08T05:14:19;283.43;;;134.40;;
48481;SDS011;34284;48.278;16.378;2023-08-08T05:16:45;299.88;;;130.90;;
48481;SDS011;34284;48.278;16.378;2023-08-08T05:19:11;303.88;;;133.02;;
48481;SDS011;34284;48.278;16.378;2023-08-08T05:21:37;304.75;;;130.90;;
48481;SDS011;34284;48.278;16.378;2023-08-08T05:24:03;304.67;;;128.02;;
48481;SDS011;34284;48.278;16.378;2023-08-08T05:26:29;316.63;;;132.75;;
48481;SDS011;34284;48.278;16.378;2023-08-08T05:28:56;315.90;;;130.13;;
48481;SDS011;34284;48.278;16.378;2023-08-08T05:31:22;317.38;;;133.35;;
48481;SDS011;34284;48.278;16.378;2023-08-08T05:33:48;317.58;;;132.68;;
48481;SDS011;34284;48.278;16.378;2023-08-08T05:36:14;349.55;;;204.60;;
48481;SDS011;34284;48.278;16.378;2023-08-08T05:38:40;310.20;;;132.52;;
48481;SDS011;34284;48.278;16.378;2023-08-08T05:41:06;314.00;;;140.32;;
48481;SDS011;34284;48.278;16.378;2023-08-08T05:43:33;289.88;;;136.05;;
48481;SDS011;34284;48.278;16.378;2023-08-08T05:45:59;296.88;;;137.52;;
48481;SDS011;34284;48.278;16.378;2023-08-08T05:48:25;337.48;;;170.38;;
48481;SDS011;34284;48.278;16.378;2023-08-08T05:50:51;341.10;;;164.70;;
48481;SDS011;34284;48.278;16.378;2023-08-08T05:53:17;339.05;;;168.40;;
48481;SDS011;34284;48.278;16.378;2023-08-08T05:55:43;338.85;;;175.40;;
48481;SDS011;34284;48.278;16.378;2023-08-08T05:58:09;345.83;;;173.60;;
48481;SDS011;34284;48.278;16.378;2023-08-08T06:00:35;326.30;;;167.52;;
48481;SDS011;34284;48.278;16.378;2023-08-08T06:03:01;347.17;;;174.88;;
48481;SDS011;34284;48.278;16.378;2023-08-08T06:05:27;348.45;;;177.13;;
48481;SDS011;34284;48.278;16.378;2023-08-08T06:07:53;349.75;;;180.77;;
48481;SDS011;34284;48.278;16.378;2023-08-08T06:10:20;328.33;;;161.50;;
48481;SDS011;34284;48.278;16.378;2023-08-08T06:12:47;324.40;;;163.73;;
48481;SDS011;34284;48.278;16.378;2023-08-08T06:15:12;306.50;;;152.50;;
48481;SDS011;34284;48.278;16.378;2023-08-08T06:17:38;338.25;;;176.48;;
48481;SDS011;34284;48.278;16.378;2023-08-08T06:20:05;331.63;;;179.75;;
48481;SDS011;34284;48.278;16.378;2023-08-08T06:22:34;321.50;;;168.75;;
48481;SDS011;34284;48.278;16.378;2023-08-08T06:25:00;322.58;;;169.55;;
48481;SDS011;34284;48.278;16.378;2023-08-08T06:27:26;327.27;;;178.02;;
48481;SDS011;34284;48.278;16.378;2023-08-08T06:29:52;335.10;;;178.63;;
48481;SDS011;34284;48.278;16.378;2023-08-08T06:32:18;314.10;;;153.45;;
48481;SDS011;34284;48.278;16.378;2023-08-08T06:34:44;339.38;;;193.05;;
48481;SDS011;34284;48.278;16.378;2023-08-08T06:37:11;333.83;;;191.52;;
48481;SDS011;34284;48.278;16.378;2023-08-08T06:39:37;336.10;;;183.52;;
48481;SDS011;34284;48.278;16.378;2023-08-08T06:42:04;345.15;;;186.55;;
48481;SDS011;34284;48.278;16.378;2023-08-08T06:44:31;347.88;;;198.00;;
48481;SDS011;34284;48.278;16.378;2023-08-08T06:46:58;353.25;;;199.85;;
48481;SDS011;34284;48.278;16.378;2023-08-08T06:49:24;334.63;;;185.48;;
48481;SDS011;34284;48.278;16.378;2023-08-08T06:51:50;328.13;;;188.35;;
48481;SDS011;34284;48.278;16.378;2023-08-08T06:54:16;323.90;;;176.40;;
48481;SDS011;34284;48.278;16.378;2023-08-08T06:56:42;335.98;;;185.05;;
48481;SDS011;34284;48.278;16.378;2023-08-08T06:59:08;325.73;;;180.30;;
48481;SDS011;34284;48.278;16.378;2023-08-08T07:01:34;328.70;;;178.20;;
48481;SDS011;34284;48.278;16.378;2023-08-08T07:04:00;324.35;;;174.13;;
48481;SDS011;34284;48.278;16.378;2023-08-08T07:06:26;313.00;;;167.63;;
48481;SDS011;34284;48.278;16.378;2023-08-08T07:08:52;334.63;;;190.20;;
48481;SDS011;34284;48.278;16.378;2023-08-08T07:11:18;331.90;;;206.45;;
48481;SDS011;34284;48.278;16.378;2023-08-08T07:13:45;329.65;;;192.20;;
48481;SDS011;34284;48.278;16.378;2023-08-08T07:16:11;329.48;;;190.85;;
48481;SDS011;34284;48.278;16.378;2023-08-08T07:18:37;335.10;;;197.82;;
48481;SDS011;34284;48.278;16.378;2023-08-08T07:21:03;343.15;;;205.45;;
48481;SDS011;34284;48.278;16.378;2023-08-08T07:23:30;342.15;;;196.30;;
48481;SDS011;34284;48.278;16.378;2023-08-08T07:25:56;342.13;;;197.65;;
48481;SDS011;34284;48.278;16.378;2023-08-08T07:28:22;348.13;;;209.07;;
48481;SDS011;34284;48.278;16.378;2023-08-08T07:30:48;352.33;;;218.65;;
48481;SDS011;34284;48.278;16.378;2023-08-08T07:33:14;348.48;;;214.95;;
48481;SDS011;34284;48.278;16.378;2023-08-08T07:35:41;346.27;;;217.55;;
48481;SDS011;34284;48.278;16.378;2023-08-08T07:38:07;343.85;;;209.38;;
48481;SDS011;34284;48.278;16.378;2023-08-08T07:40:33;355.27;;;219.68;;
48481;SDS011;34284;48.278;16.378;2023-08-08T07:42:59;349.92;;;211.48;;
48481;SDS011;34284;48.278;16.378;2023-08-08T07:45:25;351.48;;;214.93;;
48481;SDS011;34284;48.278;16.378;2023-08-08T07:47:51;353.23;;;216.07;;
48481;SDS011;34284;48.278;16.378;2023-08-08T07:50:17;350.15;;;230.40;;
48481;SDS011;34284;48.278;16.378;2023-08-08T07:52:43;348.58;;;223.82;;
48481;SDS011;34284;48.278;16.378;2023-08-08T07:55:09;345.77;;;211.25;;
48481;SDS011;34284;48.278;16.378;2023-08-08T07:57:35;345.20;;;205.10;;
48481;SDS011;34284;48.278;16.378;2023-08-08T08:00:04;344.85;;;192.00;;
48481;SDS011;34284;48.278;16.378;2023-08-08T08:02:36;351.50;;;206.35;;
48481;SDS011;34284;48.278;16.378;2023-08-08T08:05:03;365.75;;;218.52;;
48481;SDS011;34284;48.278;16.378;2023-08-08T08:07:33;351.50;;;203.55;;
48481;SDS011;34284;48.278;16.378;2023-08-08T08:09:59;347.45;;;200.73;;
48481;SDS011;34284;48.278;16.378;2023-08-08T08:12:25;350.00;;;210.80;;
48481;SDS011;34284;48.278;16.378;2023-08-08T08:14:51;358.73;;;211.45;;
48481;SDS011;34284;48.278;16.378;2023-08-08T08:17:17;351.02;;;213.57;;
48481;SDS011;34284;48.278;16.378;2023-08-08T08:19:43;347.02;;;206.27;;
48481;SDS011;34284;48.278;16.378;2023-08-08T08:22:09;354.90;;;218.30;;
48481;SDS011;34284;48.278;16.378;2023-08-08T08:24:35;354.25;;;213.75;;
48481;SDS011;34284;48.278;16.378;2023-08-08T08:27:01;351.02;;;200.95;;
48481;SDS011;34284;48.278;16.378;2023-08-08T08:29:27;350.48;;;207.75;;
48481;SDS011;34284;48.278;16.378;2023-08-08T08:31:53;343.17;;;197.68;;
48481;SDS011;34284;48.278;16.378;2023-08-08T08:34:19;338.02;;;198.95;;
48481;SDS011;34284;48.278;16.378;2023-08-08T08:36:45;334.05;;;195.77;;
48481;SDS011;34284;48.278;16.378;2023-08-08T08:39:11;336.15;;;201.05;;
48481;SDS011;34284;48.278;16.378;2023-08-08T08:41:37;337.95;;;187.32;;
48481;SDS011;34284;48.278;16.378;2023-08-08T08:44:03;338.15;;;192.50;;
48481;SDS011;34284;48.278;16.378;2023-08-08T08:46:30;333.55;;;189.30;;
48481;SDS011;34284;48.278;16.378;2023-08-08T08:48:57;335.58;;;188.18;;
48481;SDS011;34284;48.278;16.378;2023-08-08T08:51:25;329.35;;;181.63;;
48481;SDS011;34284;48.278;16.378;2023-08-08T08:53:51;314.08;;;185.63;;
48481;SDS011;34284;48.278;16.378;2023-08-08T08:56:17;315.67;;;183.60;;
48481;SDS011;34284;48.278;16.378;2023-08-08T08:58:43;329.10;;;194.60;;
48481;SDS011;34284;48.278;16.378;2023-08-08T09:01:09;353.65;;;209.90;;
48481;SDS011;34284;48.278;16.378;2023-08-08T09:03:36;346.38;;;203.80;;
48481;SDS011;34284;48.278;16.378;2023-08-08T09:06:02;339.38;;;195.65;;
48481;SDS011;34284;48.278;16.378;2023-08-08T09:08:30;350.38;;;210.57;;
48481;SDS011;34284;48.278;16.378;2023-08-08T09:10:56;354.85;;;208.65;;
48481;SDS011;34284;48.278;16.378;2023-08-08T09:13:25;345.35;;;206.25;;
48481;SDS011;34284;48.278;16.378;2023-08-08T09:15:52;347.95;;;220.73;;
48481;SDS011;34284;48.278;16.378;2023-08-08T09:18:18;348.30;;;209.90;;
48481;SDS011;34284;48.278;16.378;2023-08-08T09:20:47;352.05;;;213.90;;
48481;SDS011;34284;48.278;16.378;2023-08-08T09:23:14;355.00;;;213.43;;
48481;SDS011;34284;48.278;16.378;2023-08-08T09:25:40;356.50;;;225.23;;
48481;SDS011;34284;48.278;16.378;2023-08-08T09:28:06;372.20;;;255.27;;
48481;SDS011;34284;48.278;16.378;2023-08-08T09:30:32;364.90;;;244.98;;
48481;SDS011;34284;48.278;16.378;2023-08-08T09:33:00;376.83;;;248.38;;
48481;SDS011;34284;48.278;16.378;2023-08-08T09:35:28;369.33;;;254.20;;
48481;SDS011;34284;48.278;16.378;2023-08-08T09:37:54;371.08;;;260.10;;
48481;SDS011;34284;48.278;16.378;2023-08-08T09:40:22;367.15;;;260.52;;
48481;SDS011;34284;48.278;16.378;2023-08-08T09:42:50;366.27;;;251.35;;
48481;SDS011;34284;48.278;16.378;2023-08-08T09:45:16;360.70;;;242.18;;
48481;SDS011;34284;48.278;16.378;2023-08-08T09:47:42;364.65;;;250.02;;
48481;SDS011;34284;48.278;16.378;2023-08-08T09:50:08;363.15;;;250.77;;
48481;SDS011;34284;48.278;16.378;2023-08-08T09:52:34;366.65;;;248.20;;
48481;SDS011;34284;48.278;16.378;2023-08-08T09:55:01;370.30;;;257.52;;
48481;SDS011;34284;48.278;16.378;2023-08-08T09:57:27;374.52;;;266.77;;
48481;SDS011;34284;48.278;16.378;2023-08-08T09:59:53;365.02;;;256.92;;
48481;SDS011;34284;48.278;16.378;2023-08-08T10:02:20;379.20;;;279.27;;
48481;SDS011;34284;48.278;16.378;2023-08-08T10:04:47;381.52;;;292.70;;
48481;SDS011;34284;48.278;16.378;2023-08-08T10:07:13;374.92;;;277.30;;
48481;SDS011;34284;48.278;16.378;2023-08-08T10:09:40;376.73;;;279.55;;
48481;SDS011;34284;48.278;16.378;2023-08-08T10:12:06;382.55;;;282.92;;
48481;SDS011;34284;48.278;16.378;2023-08-08T10:14:34;391.38;;;289.23;;
48481;SDS011;34284;48.278;16.378;2023-08-08T10:17:04;374.70;;;271.30;;
48481;SDS011;34284;48.278;16.378;2023-08-08T10:19:31;377.10;;;274.25;;
48481;SDS011;34284;48.278;16.378;2023-08-08T10:22:02;376.73;;;273.70;;
48481;SDS011;34284;48.278;16.378;2023-08-08T10:24:35;379.55;;;284.10;;
48481;SDS011;34284;48.278;16.378;2023-08-08T10:27:02;382.27;;;286.38;;
48481;SDS011;34284;48.278;16.378;2023-08-08T10:29:30;380.52;;;291.30;;
48481;SDS011;34284;48.278;16.378;2023-08-08T10:32:05;378.95;;;283.27;;
48481;SDS011;34284;48.278;16.378;2023-08-08T10:37:05;380.88;;;290.17;;
48481;SDS011;34284;48.278;16.378;2023-08-08T10:39:31;368.30;;;255.52;;
48481;SDS011;34284;48.278;16.378;2023-08-08T10:42:00;370.33;;;269.77;;
48481;SDS011;34284;48.278;16.378;2023-08-08T10:44:26;368.23;;;260.80;;
48481;SDS011;34284;48.278;16.378;2023-08-08T10:46:52;435.60;;;299.40;;
48481;SDS011;34284;48.278;16.378;2023-08-08T10:49:20;345.50;;;259.45;;
48481;SDS011;34284;48.278;16.378;2023-08-08T10:51:46;346.83;;;262.58;;
48481;SDS011;34284;48.278;16.378;2023-08-08T10:54:13;347.58;;;254.52;;
48481;SDS011;34284;48.278;16.378;2023-08-08T10:56:40;356.30;;;263.27;;
48481;SDS011;34284;48.278;16.378;2023-08-08T10:59:16;355.42;;;264.75;;
48481;SDS011;34284;48.278;16.378;2023-08-08T11:01:44;363.63;;;267.02;;
48481;SDS011;34284;48.278;16.378;2023-08-08T11:04:10;381.40;;;291.85;;
48481;SDS011;34284;48.278;16.378;2023-08-08T11:06:37;372.45;;;277.77;;
48481;SDS011;34284;48.278;16.378;2023-08-08T11:09:06;373.98;;;269.17;;
48481;SDS011;34284;48.278;16.378;2023-08-08T11:11:39;359.10;;;266.85;;
48481;SDS011;34284;48.278;16.378;2023-08-08T11:14:12;351.52;;;257.80;;
48481;SDS011;34284;48.278;16.378;2023-08-08T11:16:38;346.13;;;259.42;;
48481;SDS011;34284;48.278;16.378;2023-08-08T11:19:04;354.58;;;269.42;;
48481;SDS011;34284;48.278;16.378;2023-08-08T11:21:32;345.42;;;264.20;;
48481;SDS011;34284;48.278;16.378;2023-08-08T11:23:59;341.30;;;264.42;;
48481;SDS011;34284;48.278;16.378;2023-08-08T11:26:25;349.33;;;277.65;;
48481;SDS011;34284;48.278;16.378;2023-08-08T11:28:52;349.48;;;273.77;;
48481;SDS011;34284;48.278;16.378;2023-08-08T11:31:21;340.33;;;267.70;;
48481;SDS011;34284;48.278;16.378;2023-08-08T11:33:47;347.45;;;279.25;;
48481;SDS011;34284;48.278;16.378;2023-08-08T11:36:14;356.15;;;286.33;;
48481;SDS011;34284;48.278;16.378;2023-08-08T11:38:40;357.33;;;289.73;;
48481;SDS011;34284;48.278;16.378;2023-08-08T11:41:08;359.10;;;277.98;;
48481;SDS011;34284;48.278;16.378;2023-08-08T11:43:34;353.50;;;279.83;;
48481;SDS011;34284;48.278;16.378;2023-08-08T11:46:01;347.05;;;269.23;;
48481;SDS011;34284;48.278;16.378;2023-08-08T11:48:28;343.92;;;260.70;;
48481;SDS011;34284;48.278;16.378;2023-08-08T11:50:54;341.88;;;266.30;;
48481;SDS011;34284;48.278;16.378;2023-08-08T11:53:20;335.17;;;248.10;;
48481;SDS011;34284;48.278;16.378;2023-08-08T11:55:48;373.42;;;284.30;;
48481;SDS011;34284;48.278;16.378;2023-08-08T11:58:14;382.90;;;289.40;;
48481;SDS011;34284;48.278;16.378;2023-08-08T12:00:42;384.05;;;297.67;;
48481;SDS011;34284;48.278;16.378;2023-08-08T12:03:12;391.90;;;314.20;;
48481;SDS011;34284;48.278;16.378;2023-08-08T12:05:44;390.15;;;313.38;;
48481;SDS011;34284;48.278;16.378;2023-08-08T12:08:10;387.70;;;303.17;;
48481;SDS011;34284;48.278;16.378;2023-08-08T12:10:36;384.77;;;305.08;;
48481;SDS011;34284;48.278;16.378;2023-08-08T12:13:03;386.67;;;311.30;;
48481;SDS011;34284;48.278;16.378;2023-08-08T12:15:32;392.52;;;322.85;;
48481;SDS011;34284;48.278;16.378;2023-08-08T12:18:02;392.80;;;330.65;;
48481;SDS011;34284;48.278;16.378;2023-08-08T12:20:29;392.00;;;329.77;;
48481;SDS011;34284;48.278;16.378;2023-08-08T12:22:56;388.10;;;311.35;;
48481;SDS011;34284;48.278;16.378;2023-08-08T12:25:22;405.50;;;329.77;;
48481;SDS011;34284;48.278;16.378;2023-08-08T12:27:48;386.38;;;321.42;;
48481;SDS011;34284;48.278;16.378;2023-08-08T12:30:14;392.13;;;322.75;;
48481;SDS011;34284;48.278;16.378;2023-08-08T12:32:40;398.70;;;336.27;;
48481;SDS011;34284;48.278;16.378;2023-08-08T12:35:06;394.15;;;315.67;;
48481;SDS011;34284;48.278;16.378;2023-08-08T12:37:33;390.58;;;327.13;;
48481;SDS011;34284;48.278;16.378;2023-08-08T12:39:59;385.48;;;317.42;;
48481;SDS011;34284;48.278;16.378;2023-08-08T12:42:25;398.80;;;326.23;;
48481;SDS011;34284;48.278;16.378;2023-08-08T12:44:52;389.13;;;328.48;;
48481;SDS011;34284;48.278;16.378;2023-08-08T12:47:19;394.42;;;331.30;;
48481;SDS011;34284;48.278;16.378;2023-08-08T12:49:46;401.88;;;341.67;;
48481;SDS011;34284;48.278;16.378;2023-08-08T12:52:12;401.17;;;343.73;;
48481;SDS011;34284;48.278;16.378;2023-08-08T12:54:38;388.77;;;319.67;;
48481;SDS011;34284;48.278;16.378;2023-08-08T12:57:04;393.73;;;319.52;;
48481;SDS011;34284;48.278;16.378;2023-08-08T12:59:30;390.35;;;320.20;;
48481;SDS011;34284;48.278;16.378;2023-08-08T13:01:56;395.88;;;326.38;;
48481;SDS011;34284;48.278;16.378;2023-08-08T13:04:23;384.48;;;315.83;;
48481;SDS011;34284;48.278;16.378;2023-08-08T13:06:49;390.73;;;328.20;;
48481;SDS011;34284;48.278;16.378;2023-08-08T13:09:15;389.08;;;323.42;;
48481;SDS011;34284;48.278;16.378;2023-08-08T13:11:41;394.65;;;322.23;;
48481;SDS011;34284;48.278;16.378;2023-08-08T13:14:07;380.20;;;309.08;;
48481;SDS011;34284;48.278;16.378;2023-08-08T13:16:33;382.73;;;310.90;;
48481;SDS011;34284;48.278;16.378;2023-08-08T13:18:59;384.17;;;303.33;;
48481;SDS011;34284;48.278;16.378;2023-08-08T13:21:26;381.60;;;291.63;;
48481;SDS011;34284;48.278;16.378;2023-08-08T13:23:52;373.80;;;277.70;;
48481;SDS011;34284;48.278;16.378;2023-08-08T13:26:18;375.05;;;273.13;;
48481;SDS011;34284;48.278;16.378;2023-08-08T13:28:44;380.75;;;285.83;;
48481;SDS011;34284;48.278;16.378;2023-08-08T13:31:10;382.35;;;282.35;;
48481;SDS011;34284;48.278;16.378;2023-08-08T13:33:36;377.75;;;279.92;;
48481;SDS011;34284;48.278;16.378;2023-08-08T13:36:02;373.95;;;268.77;;
48481;SDS011;34284;48.278;16.378;2023-08-08T13:38:29;368.40;;;268.48;;
48481;SDS011;34284;48.278;16.378;2023-08-08T13:40:55;370.58;;;277.88;;
48481;SDS011;34284;48.278;16.378;2023-08-08T13:43:21;369.50;;;285.17;;